Terminal Aerodrome Forecast
Issued by NWS

Home | Current Version | Previous Version | Text Only | Print | Product List | Glossary On
Versions: 1 2 3 4 5 6 7 8 9 10 11 12
000
FTUS45 KTFX 050520
TAFBZN
TAF
KBZN 050520Z 0506/0606 15005KT P6SM SCT090
     FM051500 VRB05KT P6SM BKN090 PROB30 0521/0602 VRB15G30KT TSRA
      BKN060CB
     FM060300 18006KT P6SM VCSH SCT030 OVC050=

USA.gov is the U.S. government's official web portal to all federal, state and local government web resources and services.